Time;durP1;ratioP1;P1;durP2;ratioP2;P2;SDS_P1;SDS_P2;PMS_P1;PMS_P2;Temp;Humidity;BMP_temperature;BMP_pressure;BME280_temperature;BME280_humidity;BME280_pressure;Samples;Min_cycle;Max_cycle;Signal;HPM_P1;HPM_P2
2022/03/09 00:00:46;;;;;;;;;63.25;49.00;;;;;10.44;44.13;101606.75;5093149;27;45479;-79
2022/03/09 00:03:11;;;;;;;;;67.25;49.00;;;;;10.48;44.21;101608.56;5095024;27;45717;-79
2022/03/09 00:05:38;;;;;;;;;66.50;47.00;;;;;10.44;44.30;101601.47;5094477;27;45592;-79
2022/03/09 00:08:04;;;;;;;;;63.00;46.25;;;;;10.46;44.31;101607.66;5087805;27;48242;-79
2022/03/09 00:10:29;;;;;;;;;67.25;49.25;;;;;10.45;44.17;101607.63;5097343;27;48885;-78
2022/03/09 00:12:54;;;;;;;;;66.75;45.50;;;;;10.39;44.54;101610.13;5096797;27;45862;-79
2022/03/09 00:15:20;;;;;;;;;62.00;46.50;;;;;10.37;44.53;101623.25;5087704;27;45489;-79
2022/03/09 00:17:46;;;;;;;;;68.75;50.00;;;;;10.31;44.57;101622.22;5084237;27;47499;-79
2022/03/09 00:20:11;;;;;;;;;66.50;51.25;;;;;10.26;44.70;101622.13;5095459;27;45257;-79
2022/03/09 00:22:41;;;;;;;;;75.50;52.25;;;;;10.23;44.87;101619.38;5089336;27;46029;-79
2022/03/09 00:25:10;;;;;;;;;64.50;49.75;;;;;10.19;44.97;101614.88;5085218;27;45465;-79
2022/03/09 00:27:35;;;;;;;;;64.00;49.25;;;;;10.10;44.79;101609.34;5081118;27;47710;-79
2022/03/09 00:30:01;;;;;;;;;63.50;50.25;;;;;10.09;45.03;101618.13;5090473;27;45473;-79
2022/03/09 00:32:27;;;;;;;;;64.75;46.75;;;;;10.05;44.99;101632.09;5095591;27;45607;-80
2022/03/09 00:34:53;;;;;;;;;64.50;47.00;;;;;9.99;45.16;101627.53;5092449;27;45240;-82
2022/03/09 00:37:20;;;;;;;;;71.50;49.50;;;;;9.96;45.29;101627.50;5086561;27;47233;-79
2022/03/09 00:39:50;;;;;;;;;60.75;47.75;;;;;9.92;45.39;101626.50;5086824;27;45458;-79
2022/03/09 00:42:15;;;;;;;;;70.25;47.75;;;;;9.87;45.17;101628.13;5085592;27;46161;-79
2022/03/09 00:44:42;;;;;;;;;65.75;46.50;;;;;9.85;45.60;101621.91;5088357;27;45628;-79
2022/03/09 00:47:08;;;;;;;;;63.75;46.75;;;;;9.82;45.77;101626.22;5091124;27;53278;-80
2022/03/09 00:49:33;;;;;;;;;62.25;46.50;;;;;9.73;45.66;101623.31;5088807;27;45686;-79
2022/03/09 00:51:59;;;;;;;;;68.75;47.25;;;;;9.76;45.67;101637.50;5095240;27;45838;-79
2022/03/09 00:54:24;;;;;;;;;65.00;49.00;;;;;9.74;45.53;101648.84;5089750;27;46280;-81
2022/03/09 00:56:49;;;;;;;;;69.25;51.00;;;;;9.67;45.71;101645.16;5088823;27;47283;-79
2022/03/09 00:59:15;;;;;;;;;63.00;47.75;;;;;9.63;45.84;101643.28;5093893;27;45496;-79
2022/03/09 01:01:40;;;;;;;;;63.00;46.75;;;;;9.61;45.80;101648.50;5089314;27;45411;-78
2022/03/09 01:04:06;;;;;;;;;68.00;49.25;;;;;9.60;45.98;101652.00;5095683;27;45541;-79
2022/03/09 01:06:32;;;;;;;;;64.25;47.75;;;;;9.55;46.01;101652.72;5096639;27;46421;-79
2022/03/09 01:08:59;;;;;;;;;63.00;45.75;;;;;9.55;46.02;101650.09;5087976;27;45407;-79
2022/03/09 01:11:26;;;;;;;;;63.75;47.50;;;;;9.54;46.35;101656.22;5089299;27;45565;-79
2022/03/09 01:13:52;;;;;;;;;64.25;49.50;;;;;9.50;46.34;101656.97;5084360;27;45615;-80
2022/03/09 01:16:17;;;;;;;;;66.25;47.25;;;;;9.45;46.42;101655.09;5095124;27;46564;-78
2022/03/09 01:18:42;;;;;;;;;67.50;47.75;;;;;9.43;46.62;101662.06;5089028;27;46789;-79
2022/03/09 01:21:08;;;;;;;;;65.25;45.75;;;;;9.41;46.57;101662.88;5079752;27;46866;-79
2022/03/09 01:23:40;;;;;;;;;64.25;47.25;;;;;9.38;46.76;101658.41;5091569;27;45591;-79
2022/03/09 01:26:06;;;;;;;;;62.75;47.50;;;;;9.35;46.78;101658.31;5079122;27;45623;-79
2022/03/09 01:28:32;;;;;;;;;59.00;44.25;;;;;9.33;46.94;101660.00;5094736;27;45326;-79
2022/03/09 01:30:57;;;;;;;;;64.75;49.00;;;;;9.31;46.85;101652.91;5096371;27;45353;-79
2022/03/09 01:33:23;;;;;;;;;67.00;47.00;;;;;9.27;47.18;101654.56;5087684;27;48848;-78
2022/03/09 01:35:48;;;;;;;;;66.75;48.00;;;;;9.26;47.17;101654.50;5094813;27;50376;-79
2022/03/09 01:38:14;;;;;;;;;74.25;49.75;;;;;9.19;47.21;101640.25;5091182;27;48919;-79
2022/03/09 01:40:39;;;;;;;;;70.50;51.25;;;;;9.19;47.33;101651.69;5088042;27;45549;-78
2022/03/09 01:43:04;;;;;;;;;70.50;51.50;;;;;9.16;47.26;101649.00;5090863;27;46857;-79
2022/03/09 01:45:31;;;;;;;;;67.75;50.00;;;;;9.14;47.59;101653.28;5095716;27;47393;-79
2022/03/09 01:47:56;;;;;;;;;74.50;49.75;;;;;9.12;47.31;101660.28;5085382;27;45390;-81
2022/03/09 01:50:21;;;;;;;;;66.25;50.00;;;;;9.09;47.48;101643.47;5092428;27;45330;-79
2022/03/09 01:52:47;;;;;;;;;71.75;50.00;;;;;9.07;47.80;101656.59;5096592;27;45618;-79
2022/03/09 01:55:12;;;;;;;;;67.00;48.50;;;;;9.04;47.99;101648.59;5084850;27;51570;-79
2022/03/09 01:57:40;;;;;;;;;69.50;50.00;;;;;9.01;48.03;101645.00;5093399;27;45211;-79
2022/03/09 02:00:06;;;;;;;;;64.75;49.50;;;;;9.00;48.22;101643.19;5090364;27;45348;-80
2022/03/09 02:02:32;;;;;;;;;71.00;51.25;;;;;8.97;47.98;101633.47;5079596;27;45698;-79
2022/03/09 02:04:57;;;;;;;;;62.75;48.25;;;;;8.92;48.26;101629.78;5091838;27;45474;-78
2022/03/09 02:09:41;;;;;;;;;66.50;50.00;;;;;8.88;48.27;101620.91;5095610;27;45428;-79
2022/03/09 02:10:09;;;;;;;;;64.50;49.50;;;;;8.92;48.25;101635.06;5082900;27;45929;-79
2022/03/09 02:12:37;;;;;;;;;68.50;49.75;;;;;8.88;48.28;101631.44;5112151;27;45564;-79
2022/03/09 02:15:07;;;;;;;;;65.50;46.50;;;;;8.86;48.66;101629.59;5079366;27;46483;-80
2022/03/09 02:17:33;;;;;;;;;68.00;49.75;;;;;8.83;48.81;101630.41;5083663;27;45469;-79
2022/03/09 02:19:58;;;;;;;;;68.25;52.50;;;;;8.84;48.37;101634.84;5082610;27;46219;-79
2022/03/09 02:22:32;;;;;;;;;66.50;48.50;;;;;8.83;48.59;101633.03;5083131;27;45275;-79
2022/03/09 02:25:00;;;;;;;;;65.00;48.75;;;;;8.80;49.25;101638.22;5079554;27;47083;-80
2022/03/09 02:27:25;;;;;;;;;66.75;51.25;;;;;8.79;49.20;101638.16;5085426;27;45480;-79
2022/03/09 02:29:51;;;;;;;;;67.75;47.75;;;;;8.77;49.01;101635.47;5084790;27;45415;-79
2022/03/09 02:32:17;;;;;;;;;68.00;48.25;;;;;8.77;49.13;101637.22;5115704;27;45680;-79
2022/03/09 02:34:44;;;;;;;;;70.50;50.50;;;;;8.75;49.15;101631.91;5115122;27;46910;-80
2022/03/09 02:37:10;;;;;;;;;61.50;45.50;;;;;8.70;49.53;101619.44;5094648;27;45560;-79
2022/03/09 02:39:35;;;;;;;;;65.50;50.25;;;;;8.69;49.41;101628.19;5095008;27;45465;-79
2022/03/09 02:42:01;;;;;;;;;66.75;48.50;;;;;8.72;49.03;101649.34;5089708;27;45433;-79
2022/03/09 02:44:27;;;;;;;;;66.25;49.50;;;;;8.71;49.62;101639.66;5091378;27;45865;-81
2022/03/09 02:46:52;;;;;;;;;68.25;50.75;;;;;8.65;49.54;101640.38;5098017;27;45553;-80
2022/03/09 02:49:18;;;;;;;;;65.00;47.50;;;;;8.66;49.92;101645.66;5091360;27;45783;-79
2022/03/09 02:51:43;;;;;;;;;72.00;49.75;;;;;8.65;49.71;101649.16;5094788;27;45429;-79
2022/03/09 02:54:12;;;;;;;;;62.00;47.25;;;;;8.60;49.53;101637.59;5093914;27;49998;-79
2022/03/09 02:56:37;;;;;;;;;69.75;49.25;;;;;8.55;49.57;101628.66;5081580;27;55096;-79
2022/03/09 02:59:03;;;;;;;;;62.25;47.25;;;;;8.58;49.75;101643.66;5095812;27;45227;-79
2022/03/09 03:01:28;;;;;;;;;64.50;47.75;;;;;8.60;50.05;101644.59;5082704;27;45453;-78
2022/03/09 03:03:53;;;;;;;;;69.75;47.25;;;;;8.55;50.50;101648.81;5089314;27;55166;-79
2022/03/09 03:06:20;;;;;;;;;71.25;49.00;;;;;8.57;50.23;101655.91;5097302;27;45297;-79
2022/03/09 03:08:46;;;;;;;;;60.25;44.75;;;;;8.57;50.72;101657.63;5094926;27;45303;-78
2022/03/09 03:11:11;;;;;;;;;63.25;46.00;;;;;8.55;50.89;101661.97;5092015;27;45998;-79
2022/03/09 03:13:37;;;;;;;;;62.00;44.75;;;;;8.54;50.65;101662.81;5093709;27;45943;-78
2022/03/09 03:16:03;;;;;;;;;61.50;45.25;;;;;8.51;51.02;101654.81;5095077;27;45454;-78
2022/03/09 03:18:29;;;;;;;;;60.25;44.75;;;;;8.52;51.08;101662.78;5097331;27;45523;-79
2022/03/09 03:20:54;;;;;;;;;63.25;43.75;;;;;8.51;51.22;101660.97;5097096;27;45516;-80
2022/03/09 03:23:23;;;;;;;;;58.50;46.25;;;;;8.50;51.28;101667.06;5096700;27;46878;-80
2022/03/09 03:25:52;;;;;;;;;60.75;43.00;;;;;8.42;51.30;101651.91;5085413;27;45472;-80
2022/03/09 03:28:17;;;;;;;;;56.50;44.75;;;;;8.43;51.30;101654.56;5090619;27;45537;-78
2022/03/09 03:30:43;;;;;;;;;60.50;46.50;;;;;8.47;51.80;101664.38;5097029;27;45555;-79
2022/03/09 03:33:09;;;;;;;;;59.50;44.75;;;;;8.43;51.76;101648.41;5092845;27;47905;-79
2022/03/09 03:35:34;;;;;;;;;62.75;45.50;;;;;8.43;52.15;101656.31;5080190;27;45319;-80
2022/03/09 03:38:00;;;;;;;;;59.50;41.75;;;;;8.44;52.48;101650.19;5093946;27;45314;-79
2022/03/09 03:40:25;;;;;;;;;59.25;44.00;;;;;8.39;52.09;101643.03;5084775;27;45555;-79
2022/03/09 03:42:53;;;;;;;;;54.00;37.75;;;;;8.45;52.13;101655.50;5095271;27;46481;-79
2022/03/09 03:45:19;;;;;;;;;56.00;42.50;;;;;8.45;52.53;101651.97;5095201;27;47196;-79
2022/03/09 03:47:44;;;;;;;;;58.25;42.75;;;;;8.43;52.76;101648.41;5095123;27;46201;-79
2022/03/09 03:50:10;;;;;;;;;45.00;33.75;;;;;8.44;53.11;101650.19;5086815;27;45278;-79
2022/03/09 03:52:35;;;;;;;;;45.75;38.25;;;;;8.38;53.13;101640.38;5092201;27;46342;-80
2022/03/09 03:55:01;;;;;;;;;52.00;39.75;;;;;8.42;53.22;101651.91;5097540;27;45343;-78
2022/03/09 03:57:26;;;;;;;;;51.00;41.00;;;;;8.40;53.70;101655.34;5097460;27;45396;-78
2022/03/09 03:59:51;;;;;;;;;57.00;39.25;;;;;8.37;53.44;101650.00;5090823;27;45445;-81
2022/03/09 04:02:19;;;;;;;;;47.00;40.50;;;;;8.38;53.79;101649.16;5085226;27;46396;-79
2022/03/09 04:04:44;;;;;;;;;52.00;37.00;;;;;8.37;53.56;101655.28;5079118;27;45540;-81
2022/03/09 04:07:10;;;;;;;;;58.25;39.25;;;;;8.37;53.54;101651.75;5085512;27;45409;-79
2022/03/09 04:09:35;;;;;;;;;44.50;36.50;;;;;8.33;54.08;101636.66;5095039;27;45379;-79
2022/03/09 04:12:04;;;;;;;;;36.50;36.00;;;;;8.35;54.04;101662.16;5089738;27;47447;-79
2022/03/09 04:14:29;;;;;;;;;46.25;35.00;;;;;8.34;54.08;101662.13;5096743;27;45496;-78
2022/03/09 04:16:54;;;;;;;;;50.25;35.00;;;;;8.32;54.30;101656.81;5088540;27;45853;-79
2022/03/09 04:19:20;;;;;;;;;45.75;38.25;;;;;8.27;54.20;101647.00;5083186;27;45682;-79
2022/03/09 04:21:45;;;;;;;;;49.75;38.25;;;;;8.31;54.38;101662.00;5094984;27;47727;-79
2022/03/09 04:24:11;;;;;;;;;49.75;38.00;;;;;8.30;54.23;101655.84;5097180;27;48726;-81
2022/03/09 04:26:36;;;;;;;;;49.75;41.75;;;;;8.29;54.59;101658.44;5089421;27;45375;-79
2022/03/09 04:29:02;;;;;;;;;49.00;39.75;;;;;8.28;54.47;101651.41;5088610;27;45194;-78
2022/03/09 04:31:27;;;;;;;;;54.50;41.75;;;;;8.26;54.87;101653.09;5083683;27;46651;-79
2022/03/09 04:33:53;;;;;;;;;59.75;41.25;;;;;8.25;54.71;101651.28;5094337;27;45512;-81
2022/03/09 04:36:18;;;;;;;;;58.50;44.00;;;;;8.25;54.82;101660.06;5091693;27;45430;-81
2022/03/09 04:38:44;;;;;;;;;57.25;44.00;;;;;8.22;54.88;101651.19;5089733;27;45575;-81
2022/03/09 04:41:09;;;;;;;;;51.50;40.50;;;;;8.22;54.56;101662.63;5096159;27;47333;-79
2022/03/09 04:43:35;;;;;;;;;46.25;38.00;;;;;8.20;54.88;101656.38;5095680;27;45519;-79
2022/03/09 04:46:00;;;;;;;;;47.75;40.00;;;;;8.21;55.15;101657.31;5084877;27;45658;-79
2022/03/09 04:48:25;;;;;;;;;47.25;38.00;;;;;8.19;55.15;101667.75;5096262;27;45286;-79
2022/03/09 04:50:51;;;;;;;;;47.50;37.25;;;;;8.18;55.40;101659.81;5092208;27;51342;-80
2022/03/09 04:53:19;;;;;;;;;42.00;35.25;;;;;8.06;55.58;101647.16;5094092;27;51776;-79
2022/03/09 04:55:45;;;;;;;;;41.75;33.75;;;;;8.16;55.96;101670.31;5087368;27;45482;-79
2022/03/09 04:58:10;;;;;;;;;37.50;31.25;;;;;8.16;55.87;101669.41;5084717;27;46179;-81
2022/03/09 05:00:36;;;;;;;;;30.50;26.75;;;;;8.15;56.24;101673.78;5088957;27;62615;-79
2022/03/09 05:03:01;;;;;;;;;42.75;34.75;;;;;8.15;56.01;101668.53;5080315;27;45280;-79
2022/03/09 05:05:26;;;;;;;;;31.75;25.75;;;;;8.17;56.62;101677.34;5082793;27;45440;-79
2022/03/09 05:07:52;;;;;;;;;33.25;26.50;;;;;8.10;57.34;101656.94;5095105;27;47101;-79
2022/03/09 05:10:18;;;;;;;;;23.50;23.50;;;;;8.17;57.20;101677.34;5096334;27;47459;-79
2022/03/09 05:12:43;;;;;;;;;31.50;29.25;;;;;8.18;56.94;101675.59;5089770;27;49084;-80
2022/03/09 05:15:09;;;;;;;;;30.25;25.25;;;;;8.17;57.28;101687.88;5078241;27;45428;-79
2022/03/09 05:17:44;;;;;;;;;28.00;27.25;;;;;8.17;57.22;101685.22;5093462;27;45411;-81
2022/03/09 05:20:11;;;;;;;;;30.00;24.75;;;;;8.14;57.45;101682.47;5089194;27;46342;-79
2022/03/09 05:22:36;;;;;;;;;32.75;27.00;;;;;8.16;57.47;101688.72;5089688;27;45709;-79
2022/03/09 05:25:02;;;;;;;;;29.25;21.50;;;;;8.17;57.38;101693.13;5086531;27;45560;-79
2022/03/09 05:27:28;;;;;;;;;24.75;20.00;;;;;8.17;58.09;101695.75;5087658;27;45405;-79
2022/03/09 05:29:53;;;;;;;;;31.50;24.50;;;;;8.14;57.89;101693.91;5085356;27;51502;-79
2022/03/09 05:32:19;;;;;;;;;46.50;33.25;;;;;8.16;58.24;101700.97;5085222;27;45499;-78
2022/03/09 05:34:46;;;;;;;;;43.50;37.75;;;;;8.15;57.98;101705.34;5080375;27;45241;-79
2022/03/09 05:37:12;;;;;;;;;49.25;38.75;;;;;8.17;58.22;101715.91;5092177;27;45289;-79
2022/03/09 05:39:37;;;;;;;;;52.25;41.00;;;;;8.12;58.17;101710.47;5089345;27;47285;-79
2022/03/09 05:42:03;;;;;;;;;60.25;41.50;;;;;8.13;58.23;101715.78;5093519;27;48777;-79
2022/03/09 05:44:28;;;;;;;;;55.25;41.00;;;;;8.11;58.28;101714.84;5080480;27;45354;-78
2022/03/09 05:46:54;;;;;;;;;56.75;44.50;;;;;8.15;57.98;101729.03;5108770;27;45431;-78
2022/03/09 05:49:20;;;;;;;;;55.75;45.00;;;;;8.14;57.92;101741.25;5085803;27;47382;-79
2022/03/09 05:51:45;;;;;;;;;59.75;44.75;;;;;8.13;58.44;101736.84;5087209;27;45417;-79
2022/03/09 05:54:11;;;;;;;;;61.75;47.50;;;;;8.15;58.20;101739.53;5091362;27;45318;-78
2022/03/09 05:56:38;;;;;;;;;57.50;43.00;;;;;8.14;58.01;101740.34;5079095;27;45575;-79
2022/03/09 05:59:04;;;;;;;;;65.25;46.25;;;;;8.14;58.33;101737.72;5090531;27;46941;-78
2022/03/09 06:01:36;;;;;;;;;64.25;50.00;;;;;8.20;58.12;101744.94;5095228;27;45559;-78
2022/03/09 06:04:03;;;;;;;;;63.25;45.00;;;;;8.22;57.91;101738.91;5085429;27;45509;-80
2022/03/09 06:06:29;;;;;;;;;65.50;49.25;;;;;8.25;57.88;101738.09;5086909;27;45585;-81
2022/03/09 06:08:54;;;;;;;;;62.75;48.50;;;;;8.26;57.84;101735.53;5089687;27;46934;-79
2022/03/09 06:11:20;;;;;;;;;62.50;44.00;;;;;8.29;57.67;101745.25;5090349;27;45510;-80
2022/03/09 06:13:45;;;;;;;;;70.00;52.25;;;;;8.30;58.13;101733.91;5082400;27;45579;-78
2022/03/09 06:16:24;;;;;;;;;60.50;45.00;;;;;8.29;57.43;101734.75;5096695;27;45691;-79
2022/03/09 06:18:49;;;;;;;;;64.75;47.00;;;;;8.33;58.21;101736.66;5098067;27;46601;-79
2022/03/09 06:21:15;;;;;;;;;61.50;43.25;;;;;8.31;57.76;101730.41;5095885;27;45281;-76
2022/03/09 06:23:43;;;;;;;;;61.00;44.25;;;;;8.37;58.24;101742.09;5084689;27;45475;-78
2022/03/09 06:26:08;;;;;;;;;64.25;47.00;;;;;8.40;58.06;101744.81;5093261;27;45457;-76
2022/03/09 06:28:34;;;;;;;;;57.50;44.75;;;;;8.43;58.02;101746.69;5092864;27;46196;-77
2022/03/09 06:31:00;;;;;;;;;59.50;44.25;;;;;8.45;58.70;101736.19;5090385;27;45831;-81
2022/03/09 06:33:26;;;;;;;;;64.25;44.25;;;;;8.48;58.40;101753.00;5093979;27;48089;-77
2022/03/09 06:35:51;;;;;;;;;60.50;44.00;;;;;8.49;58.42;101751.25;5113903;27;45501;-77
2022/03/09 06:38:17;;;;;;;;;62.75;44.00;;;;;8.53;58.46;101754.06;5092572;27;49610;-78
2022/03/09 06:40:57;;;;;;;;;56.25;40.75;;;;;8.55;58.17;101760.25;5094589;27;45433;-79
2022/03/09 06:43:29;;;;;;;;;59.00;44.50;;;;;8.58;58.55;101748.94;5092326;27;45596;-78
2022/03/09 06:45:55;;;;;;;;;57.75;42.25;;;;;8.60;59.06;101758.69;5090137;27;45562;-80
2022/03/09 06:48:23;;;;;;;;;54.50;39.75;;;;;8.66;58.93;101756.25;5087292;27;61052;-76
2022/03/09 06:51:19;;;;;;;;;51.25;39.00;;;;;8.72;58.85;101754.66;5088850;27;45986;-78
2022/03/09 06:53:50;;;;;;;;;58.50;44.75;;;;;8.75;58.45;101758.31;5093656;27;45552;-77
2022/03/09 06:56:16;;;;;;;;;52.50;42.25;;;;;8.77;58.37;101764.50;5088028;27;46387;-78
2022/03/09 06:58:42;;;;;;;;;55.00;41.50;;;;;8.83;59.10;101766.44;5093410;27;45738;-78
2022/03/09 07:01:07;;;;;;;;;49.25;41.25;;;;;8.85;58.97;101757.75;5096224;27;59753;-76
2022/03/09 07:03:32;;;;;;;;;51.50;39.25;;;;;8.89;59.05;101774.53;5088766;27;45257;-79
2022/03/09 07:05:58;;;;;;;;;57.25;41.00;;;;;8.93;58.81;101777.31;5082045;27;45610;-76
2022/03/09 07:08:23;;;;;;;;;54.25;41.75;;;;;8.98;58.79;101785.38;5081741;27;45503;-76
2022/03/09 07:10:50;;;;;;;;;53.75;40.50;;;;;9.02;58.63;101786.38;5087884;27;45458;-77
2022/03/09 07:13:15;;;;;;;;;58.25;43.75;;;;;9.05;58.81;101784.72;5101403;27;45694;-81
2022/03/09 07:15:40;;;;;;;;;54.25;42.75;;;;;9.13;58.53;101792.91;5086595;27;51773;-82
2022/03/09 07:18:06;;;;;;;;;66.50;49.25;;;;;9.22;59.05;101793.19;5067125;27;47473;-78
2022/03/09 07:20:31;;;;;;;;;59.75;49.00;;;;;9.25;60.27;101774.84;5084946;27;62277;-82
2022/03/09 07:22:56;;;;;;;;;62.75;45.25;;;;;9.44;59.23;101794.75;5090608;27;45526;-81
2022/03/09 07:25:22;;;;;;;;;73.50;53.50;;;;;9.52;58.59;101795.00;5088759;27;45685;-80
2022/03/09 07:27:47;;;;;;;;;60.25;46.25;;;;;9.60;60.12;101798.78;5100536;27;52755;-80
2022/03/09 07:30:13;;;;;;;;;65.75;47.75;;;;;9.54;60.82;101799.47;5087914;27;45697;-80
2022/03/09 07:32:38;;;;;;;;;66.75;51.50;;;;;9.62;59.63;101807.59;5085687;27;45476;-83
2022/03/09 07:35:04;;;;;;;;;57.50;47.00;;;;;9.67;59.24;101808.63;5084484;27;46199;-82
2022/03/09 07:37:30;;;;;;;;;65.75;50.50;;;;;9.73;59.53;101816.72;5087323;27;46223;-81
2022/03/09 07:39:55;;;;;;;;;63.50;49.50;;;;;9.70;61.16;101807.00;5088413;27;45483;-82
2022/03/09 07:42:21;;;;;;;;;60.25;46.50;;;;;9.74;59.03;101807.97;5081626;27;45986;-80
2022/03/09 07:44:46;;;;;;;;;67.75;53.25;;;;;9.80;59.15;101813.44;5065496;27;45512;-81
2022/03/09 07:47:11;;;;;;;;;69.75;54.25;;;;;9.87;59.15;101807.50;5081236;27;48081;-80
2022/03/09 07:49:37;;;;;;;;;60.75;48.00;;;;;9.96;58.86;101812.16;5083881;27;49077;-80
2022/03/09 07:52:04;;;;;;;;;57.25;43.75;;;;;10.04;59.33;101818.53;5174282;22;45538;-78
2022/03/09 07:54:29;;;;;;;;;60.00;45.00;;;;;10.14;59.06;101817.94;5065289;28;45585;-78
2022/03/09 07:56:55;;;;;;;;;57.75;39.75;;;;;10.18;58.90;101814.56;5067248;28;46520;-80
2022/03/09 07:59:21;;;;;;;;;66.25;51.75;;;;;10.28;60.49;101814.81;5071336;28;45373;-80
2022/03/09 08:01:46;;;;;;;;;54.50;40.25;;;;;10.39;59.33;101823.97;5064787;27;45865;-79
2022/03/09 08:04:11;;;;;;;;;49.50;38.25;;;;;10.32;59.19;101803.50;5062239;28;45686;-80
2022/03/09 08:06:37;;;;;;;;;51.50;38.50;;;;;10.51;58.93;101826.94;5062342;28;46503;-80
2022/03/09 08:09:06;;;;;;;;;47.50;39.25;;;;;10.58;58.69;101828.00;5066886;28;45430;-79
2022/03/09 08:11:32;;;;;;;;;48.25;38.75;;;;;10.66;58.94;101829.09;5064135;28;45346;-81
2022/03/09 08:13:57;;;;;;;;;49.75;37.50;;;;;10.72;58.99;101835.44;5067066;28;45500;-81
2022/03/09 08:16:23;;;;;;;;;48.50;39.25;;;;;10.83;58.97;101840.09;5071804;28;48966;-82
2022/03/09 08:18:48;;;;;;;;;52.50;41.75;;;;;10.87;59.51;101832.31;5066011;28;45532;-80
2022/03/09 08:21:13;;;;;;;;;48.00;39.25;;;;;10.88;58.74;101823.53;5056175;28;49086;-80
2022/03/09 08:23:39;;;;;;;;;45.25;36.75;;;;;10.96;59.04;101826.34;5066324;27;45547;-80
2022/03/09 08:26:04;;;;;;;;;54.50;40.50;;;;;11.02;59.17;101824.78;5066068;28;47320;-83
2022/03/09 08:28:30;;;;;;;;;44.25;38.75;;;;;11.10;59.28;101831.97;5044944;28;45625;-80
2022/03/09 08:30:55;;;;;;;;;52.50;38.25;;;;;11.16;58.79;101837.41;5045916;28;48165;-81
2022/03/09 08:33:21;;;;;;;;;41.00;34.50;;;;;11.23;60.49;101836.69;5064612;28;45466;-80
2022/03/09 08:35:46;;;;;;;;;45.50;34.75;;;;;11.19;59.17;101830.47;5064355;28;47326;-79
2022/03/09 08:38:12;;;;;;;;;32.25;26.75;;;;;11.27;58.75;101828.00;5068109;27;45492;-80
2022/03/09 08:40:37;;;;;;;;;28.00;26.00;;;;;11.27;59.49;101834.16;5059761;28;48905;-80
2022/03/09 08:43:02;;;;;;;;;29.75;26.50;;;;;11.24;60.09;101839.41;5067322;28;45517;-79
2022/03/09 08:45:28;;;;;;;;;27.50;25.25;;;;;11.11;59.85;101817.91;5059708;27;47232;-80
2022/03/09 08:47:53;;;;;;;;;31.25;22.00;;;;;11.15;61.53;101838.28;5062140;28;45406;-80
2022/03/09 08:50:19;;;;;;;;;21.75;20.25;;;;;11.14;60.27;101834.75;5068214;27;45548;-82
2022/03/09 08:52:44;;;;;;;;;39.25;26.75;;;;;11.12;61.14;101848.75;5066625;28;45593;-83
2022/03/09 08:55:10;;;;;;;;;24.00;24.00;;;;;11.10;61.32;101847.84;5064856;28;45660;-81
2022/03/09 08:57:35;;;;;;;;;28.75;23.50;;;;;11.09;62.18;101848.72;5070877;28;45588;-82
2022/03/09 09:00:03;;;;;;;;;24.00;21.50;;;;;11.09;61.49;101846.94;5073736;27;45433;-81
2022/03/09 09:02:29;;;;;;;;;37.00;29.50;;;;;11.13;61.26;101846.19;5058877;28;45486;-81
2022/03/09 09:04:55;;;;;;;;;29.25;27.50;;;;;11.19;61.22;101851.63;5059979;28;45833;-81
2022/03/09 09:07:20;;;;;;;;;24.75;22.75;;;;;11.24;61.36;101846.44;5059452;28;45323;-81
2022/03/09 09:09:45;;;;;;;;;29.50;23.75;;;;;11.31;61.14;101856.31;5060745;28;45515;-81
2022/03/09 09:12:11;;;;;;;;;23.00;20.50;;;;;11.35;61.02;101855.53;5071048;28;45522;-81
2022/03/09 09:14:36;;;;;;;;;22.00;21.50;;;;;11.41;61.32;101852.13;5065724;27;47288;-80
2022/03/09 09:17:03;;;;;;;;;34.00;24.00;;;;;11.47;61.52;101850.53;5063381;27;45468;-78
2022/03/09 09:19:29;;;;;;;;;25.50;23.50;;;;;11.51;61.64;101844.47;5062124;28;45690;-82
2022/03/09 09:21:54;;;;;;;;;27.75;25.00;;;;;11.55;62.12;101843.66;5058087;28;45658;-81
2022/03/09 09:24:19;;;;;;;;;26.50;23.00;;;;;11.57;61.27;101846.34;5062497;28;46233;-82
2022/03/09 09:26:45;;;;;;;;;33.50;30.75;;;;;11.57;61.49;101841.06;5066857;28;45484;-83
2022/03/09 09:29:10;;;;;;;;;24.50;23.00;;;;;11.61;60.78;101836.72;5062441;27;45859;-81
2022/03/09 09:31:36;;;;;;;;;34.00;28.25;;;;;11.63;61.88;101837.66;5064237;28;46421;-80
2022/03/09 09:34:02;;;;;;;;;18.75;18.75;;;;;11.69;61.28;101841.31;5066607;28;54318;-79
2022/03/09 09:36:27;;;;;;;;;21.50;20.25;;;;;11.64;61.43;101821.81;5067772;27;45584;-80
2022/03/09 09:38:53;;;;;;;;;27.25;21.25;;;;;11.73;61.63;101829.06;5061730;28;45427;-79
2022/03/09 09:41:24;;;;;;;;;28.75;23.25;;;;;11.76;61.84;101832.66;5069098;28;45390;-81
2022/03/09 09:43:49;;;;;;;;;22.50;20.75;;;;;11.82;61.38;101828.41;5042486;28;46518;-81
2022/03/09 09:46:15;;;;;;;;;21.25;16.50;;;;;11.86;61.35;101828.50;5048659;28;45294;-81
2022/03/09 09:48:41;;;;;;;;;27.25;18.75;;;;;11.85;61.01;101826.72;5075156;27;45553;-81
2022/03/09 09:51:07;;;;;;;;;21.25;18.00;;;;;11.93;60.98;101830.44;5051620;28;45677;-82
2022/03/09 09:53:35;;;;;;;;;20.00;18.50;;;;;11.94;60.58;101818.09;5055985;28;49021;-82
2022/03/09 09:56:02;;;;;;;;;23.25;19.00;;;;;12.00;62.12;101823.50;5062419;28;45445;-83
2022/03/09 09:58:28;;;;;;;;;35.50;29.50;;;;;12.01;61.69;101827.94;5062883;27;45377;-84
2022/03/09 10:00:54;;;;;;;;;31.00;27.00;;;;;12.03;61.87;101812.97;5062781;28;45641;-86
2022/03/09 10:03:20;;;;;;;;;17.00;14.75;;;;;12.12;61.91;101820.22;5060049;28;48032;-87
2022/03/09 10:05:45;;;;;;;;;24.50;20.25;;;;;12.19;61.47;101817.72;5046301;28;45541;-88
2022/03/09 10:08:14;;;;;;;;;25.00;18.50;;;;;12.24;62.15;101820.47;5063358;28;45517;-87
2022/03/09 10:11:04;;;;;;;;;23.00;19.00;;;;;12.26;61.74;101821.41;5050251;28;45551;-86
2022/03/09 10:13:35;;;;;;;;;21.25;17.75;;;;;12.32;61.49;101819.75;5082391;27;45786;-86
2022/03/09 10:16:24;;;;;;;;;20.00;18.00;;;;;12.37;60.95;101822.50;5044934;28;45596;-84
2022/03/09 10:18:54;;;;;;;;;23.75;18.25;;;;;12.32;61.16;101827.72;5064806;28;45489;-84
2022/03/09 10:21:35;;;;;;;;;19.25;19.00;;;;;12.39;60.95;101818.13;5054014;28;45661;-85
2022/03/09 10:24:08;;;;;;;;;21.00;16.00;;;;;12.34;61.36;101814.47;5073067;27;46140;-84
2022/03/09 10:26:40;;;;;;;;;19.00;16.00;;;;;12.31;61.57;101809.16;5043320;28;45571;-85
2022/03/09 10:29:09;;;;;;;;;17.75;13.00;;;;;12.28;61.28;101811.72;5067744;27;45418;-80
2022/03/09 10:31:59;;;;;;;;;15.50;15.25;;;;;12.33;61.35;101805.66;5058844;28;45521;-79
2022/03/09 10:34:25;;;;;;;;;13.75;12.50;;;;;12.28;62.24;101798.47;5065472;28;47887;-80
2022/03/09 10:36:59;;;;;;;;;16.50;14.00;;;;;12.27;62.14;101810.84;5060637;28;45445;-82
2022/03/09 10:39:33;;;;;;;;;25.50;23.50;;;;;12.17;62.25;101786.78;5065588;27;45504;-81
2022/03/09 10:41:58;;;;;;;;;11.00;11.00;;;;;12.19;62.13;101793.00;5063501;28;45351;-80
2022/03/09 10:45:01;;;;;;;;;17.50;12.75;;;;;12.22;61.58;101801.91;5062171;28;45815;-80
2022/03/09 10:47:47;;;;;;;;;19.50;12.75;;;;;12.27;61.57;101810.84;4995895;28;45476;-79
2022/03/09 10:50:16;;;;;;;;;17.75;14.75;;;;;12.35;61.62;101805.66;5063265;28;45548;-80
2022/03/09 10:52:46;;;;;;;;;16.00;12.50;;;;;12.38;61.30;101791.63;5067720;28;45989;-81
2022/03/09 10:55:27;;;;;;;;;12.00;10.50;;;;;12.54;61.27;101801.63;5067968;27;47308;-79
2022/03/09 10:58:13;;;;;;;;;17.00;11.50;;;;;12.69;61.04;101793.06;5072701;27;45510;-80
2022/03/09 11:00:49;;;;;;;;;12.00;12.00;;;;;12.88;60.66;101794.25;5071693;28;45468;-76
2022/03/09 11:03:25;;;;;;;;;12.00;12.00;;;;;12.98;60.51;101794.44;5067067;28;45329;-80
2022/03/09 11:05:51;;;;;;;;;13.50;10.75;;;;;13.10;60.13;101807.94;5068321;27;46448;-81
2022/03/09 11:08:17;;;;;;;;;13.00;11.00;;;;;13.14;59.55;101800.88;5069623;27;45488;-83
2022/03/09 11:10:43;;;;;;;;;16.25;13.00;;;;;13.15;59.48;101788.53;5065079;28;45580;-83
2022/03/09 11:13:09;;;;;;;;;13.25;12.50;;;;;13.22;59.26;101801.94;5061089;28;45454;-82